| time (UTC) | temp C | wind direction | speed KPH | gust KPH | rain 1hr cm | rain 24hr cm | rain mn cm | humidity % | barometer mb |
| 20260906234605 | 33 | 110 | 6.4 | 9.7 | 0.00 | 0.00 | 0.00 | 20 | 1019.3 |
| 20260906234059 | 33 | 183 | 3.2 | 9.7 | 0.00 | 0.00 | 0.00 | 20 | 1019.3 |
| 20260906233559 | 33 | 86 | 1.6 | 6.4 | 0.00 | 0.00 | 0.00 | 20 | 1019.7 |
| 20260906233058 | 33 | 105 | 4.8 | 9.7 | 0.00 | 0.00 | 0.00 | 20 | 1019.2 |
| 20260906232553 | 33 | 112 | 1.6 | 9.7 | 0.00 | 0.00 | 0.00 | 20 | 1019.5 |
| 20260906232048 | 33 | 95 | 3.2 | 9.7 | 0.00 | 0.00 | 0.00 | 20 | 1019.5 |
| 20260906231547 | 33 | 125 | 8.0 | 11.3 | 0.00 | 0.00 | 0.00 | 20 | 1019.7 |
| 20260906231043 | 33 | 180 | 0.0 | 8.0 | 0.00 | 0.00 | 0.00 | 20 | 1019.3 |
| 20260906230542 | 33 | 81 | 9.7 | 9.7 | 0.00 | 0.00 | 0.00 | 20 | 1019.5 |
| 20260906230037 | 33 | 23 | 4.8 | 4.8 | 0.00 | 0.00 | 0.00 | 19 | 1019.5 |
| 20260906225536 | 33 | 182 | 3.2 | 11.3 | 0.00 | 0.00 | 0.00 | 20 | 1019.4 |
| 20260906225032 | 33 | 26 | 9.7 | 14.5 | 0.00 | 0.00 | 0.00 | 19 | 1019.5 |
| 20260906224528 | 33 | 110 | 4.8 | 16.1 | 0.00 | 0.00 | 0.00 | 20 | 1019.4 |
| 20260906224025 | 33 | 159 | 3.2 | 6.4 | 0.00 | 0.00 | 0.00 | 20 | 1019.4 |
| 20260906223520 | 33 | 137 | 6.4 | 16.1 | 0.00 | 0.00 | 0.00 | 19 | 1019.5 |
| 20260906223020 | 33 | 161 | 3.2 | 12.9 | 0.00 | 0.00 | 0.00 | 20 | 1019.5 |
| 20260906222514 | 33 | 119 | 0.0 | 11.3 | 0.00 | 0.00 | 0.00 | 20 | 1019.3 |
| 20260906222011 | 33 | 70 | 6.4 | 12.9 | 0.00 | 0.00 | 0.00 | 19 | 1019.5 |
| 20260906221510 | 33 | 108 | 9.7 | 17.7 | 0.00 | 0.00 | 0.00 | 19 | 1019.7 |
| 20260906221006 | 33 | 50 | 0.0 | 9.7 | 0.00 | 0.00 | 0.00 | 19 | 1019.5 |
| 20260906220500 | 34 | 149 | 3.2 | 11.3 | 0.00 | 0.00 | 0.00 | 19 | 1020.0 |
| 20260906220000 | 33 | 26 | 0.0 | 8.0 | 0.00 | 0.00 | 0.00 | 19 | 1019.9 |
| 20260906215500 | 33 | 92 | 4.8 | 11.3 | 0.00 | 0.00 | 0.00 | 19 | 1019.8 |
| 20260906214957 | 33 | 96 | 6.4 | 16.1 | 0.00 | 0.00 | 0.00 | 19 | 1019.9 |
| 20260906214457 | 34 | 132 | 8.0 | 17.7 | 0.00 | 0.00 | 0.00 | 18 | 1019.9 |
| 20260906213956 | 33 | 222 | 3.2 | 4.8 | 0.00 | 0.00 | 0.00 | 19 | 1020.3 |
| 20260906213451 | 33 | 355 | 3.2 | 6.4 | 0.00 | 0.00 | 0.00 | 19 | 1020.4 |
| 20260906212949 | 33 | 43 | 4.8 | 8.0 | 0.00 | 0.00 | 0.00 | 18 | 1020.6 |
| 20260906212444 | 34 | 205 | 9.7 | 14.5 | 0.00 | 0.00 | 0.00 | 18 | 1020.6 |
| 20260906211939 | 33 | 300 | 4.8 | 12.9 | 0.00 | 0.00 | 0.00 | 18 | 1020.6 |
| 20260906211434 | 35 | 234 | 4.8 | 9.7 | 0.00 | 0.00 | 0.00 | 18 | 1020.6 |
| 20260906210929 | 33 | 11 | 3.2 | 6.4 | 0.00 | 0.00 | 0.00 | 18 | 1020.6 |
| 20260906210425 | 33 | 233 | 3.2 | 9.7 | 0.00 | 0.00 | 0.00 | 19 | 1020.9 |
| 20260906205918 | 33 | 99 | 4.8 | 9.7 | 0.00 | 0.00 | 0.00 | 18 | 1020.9 |
| 20260906205414 | 33 | 26 | 6.4 | 9.7 | 0.00 | 0.00 | 0.00 | 18 | 1020.9 |
| 20260906204910 | 33 | 121 | 8.0 | 9.7 | 0.00 | 0.00 | 0.00 | 19 | 1021.0 |
| 20260906204409 | 33 | 92 | 4.8 | 6.4 | 0.00 | 0.00 | 0.00 | 18 | 1021.0 |
| 20260906203909 | 32 | 250 | 6.4 | 8.0 | 0.00 | 0.00 | 0.00 | 19 | 1021.1 |
| 20260906203405 | 33 | 77 | 6.4 | 6.4 | 0.00 | 0.00 | 0.00 | 18 | 1021.5 |
| 20260906202902 | 33 | 206 | 8.0 | 8.0 | 0.00 | 0.00 | 0.00 | 18 | 1021.2 |
| 20260906202401 | 33 | 121 | 3.2 | 11.3 | 0.00 | 0.00 | 0.00 | 19 | 1021.5 |
| 20260906201901 | 33 | 210 | 3.2 | 8.0 | 0.00 | 0.00 | 0.00 | 19 | 1021.3 |
| 20260906201355 | 33 | 200 | 3.2 | 6.4 | 0.00 | 0.00 | 0.00 | 19 | 1021.6 |
| 20260906200851 | 33 | 105 | 4.8 | 9.7 | 0.00 | 0.00 | 0.00 | 19 | 1021.7 |
| 20260906200347 | 32 | 279 | 1.6 | 6.4 | 0.00 | 0.00 | 0.00 | 19 | 1021.8 |
| 20260906195841 | 33 | 159 | 4.8 | 11.3 | 0.00 | 0.00 | 0.00 | 18 | 1021.9 |
| 20260906195338 | 33 | 208 | 4.8 | 6.4 | 0.00 | 0.00 | 0.00 | 19 | 1021.6 |
| 20260906194834 | 33 | 120 | 1.6 | 6.4 | 0.00 | 0.00 | 0.00 | 19 | 1021.8 |
| 20260906194329 | 33 | 137 | 4.8 | 4.8 | 0.00 | 0.00 | 0.00 | 20 | 1021.3 |
| 20260906193824 | 33 | 234 | 3.2 | 14.5 | 0.00 | 0.00 | 0.00 | 20 | 1021.8 |
| 20260906193319 | 33 | 157 | 3.2 | 12.9 | 0.00 | 0.00 | 0.00 | 20 | 1021.8 |
| 20260906192816 | 32 | 103 | 0.0 | 4.8 | 0.00 | 0.00 | 0.00 | 22 | 1021.9 |
| 20260906192315 | 32 | 42 | 4.8 | 4.8 | 0.00 | 0.00 | 0.00 | 21 | 1022.3 |
| 20260906191814 | 32 | 138 | 4.8 | 8.0 | 0.00 | 0.00 | 0.00 | 20 | 1022.2 |
| 20260906191309 | 32 | 112 | 0.0 | 6.4 | 0.00 | 0.00 | 0.00 | 21 | 1022.3 |
| 20260906190803 | 32 | 172 | 3.2 | 11.3 | 0.00 | 0.00 | 0.00 | 21 | 1022.3 |
| 20260906190257 | 32 | 157 | 3.2 | 4.8 | 0.00 | 0.00 | 0.00 | 22 | 1022.2 |
| 20260906185756 | 32 | 203 | 4.8 | 9.7 | 0.00 | 0.00 | 0.00 | 22 | 1022.5 |
| 20260906185256 | 32 | 237 | 3.2 | 4.8 | 0.00 | 0.00 | 0.00 | 22 | 1022.8 |
| 20260906184751 | 32 | 117 | 3.2 | 4.8 | 0.00 | 0.00 | 0.00 | 22 | 1022.8 |
| 20260906184246 | 31 | 260 | 3.2 | 4.8 | 0.00 | 0.00 | 0.00 | 23 | 1022.6 |
| 20260906183742 | 31 | 113 | 3.2 | 6.4 | 0.00 | 0.00 | 0.00 | 24 | 1022.8 |
| 20260906183238 | 31 | 253 | 3.2 | 4.8 | 0.00 | 0.00 | 0.00 | 24 | 1022.5 |
| 20260906182737 | 30 | 220 | 3.2 | 4.8 | 0.00 | 0.00 | 0.00 | 25 | 1022.9 |
| 20260906182233 | 30 | 113 | 4.8 | 8.0 | 0.00 | 0.00 | 0.00 | 25 | 1023.2 |
| 20260906181728 | 31 | 123 | 6.4 | 9.7 | 0.00 | 0.00 | 0.00 | 25 | 1023.2 |
| 20260906181225 | 30 | 126 | 6.4 | 9.7 | 0.00 | 0.00 | 0.00 | 24 | 1023.2 |
| 20260906180725 | 30 | 241 | 1.6 | 6.4 | 0.00 | 0.00 | 0.00 | 25 | 1023.6 |
| 20260906180220 | 30 | 163 | 0.0 | 9.7 | 0.00 | 0.00 | 0.00 | 25 | 1023.5 |
| 20260906175718 | 30 | 150 | 3.2 | 8.0 | 0.00 | 0.00 | 0.00 | 25 | 1023.4 |
| 20260906175214 | 31 | 40 | 11.3 | 11.3 | 0.00 | 0.00 | 0.00 | 24 | 1023.7 |
| 20260906174712 | 30 | 108 | 0.0 | 8.0 | 0.00 | 0.00 | 0.00 | 25 | 1023.7 |
| 20260906174206 | 30 | 164 | 0.0 | 4.8 | 0.00 | 0.00 | 0.00 | 25 | 1023.6 |
| 20260906173702 | 30 | 82 | 3.2 | 6.4 | 0.00 | 0.00 | 0.00 | 26 | 1023.6 |
| 20260906173157 | 30 | 86 | 4.8 | 8.0 | 0.00 | 0.00 | 0.00 | 26 | 1023.6 |
| 20260906172656 | 30 | 296 | 0.0 | 3.2 | 0.00 | 0.00 | 0.00 | 26 | 1023.7 |
| 20260906172152 | 29 | 157 | 1.6 | 6.4 | 0.00 | 0.00 | 0.00 | 27 | 1023.7 |
| 20260906171652 | 29 | 113 | 4.8 | 4.8 | 0.00 | 0.00 | 0.00 | 27 | 1023.8 |
| 20260906171147 | 29 | 66 | 3.2 | 8.0 | 0.00 | 0.00 | 0.00 | 27 | 1023.7 |
| 20260906170643 | 30 | 81 | 3.2 | 3.2 | 0.00 | 0.00 | 0.00 | 27 | 1024.0 |
| 20260906170143 | 30 | 111 | 0.0 | 6.4 | 0.00 | 0.00 | 0.00 | 27 | 1023.8 |
| 20260906165639 | 31 | 80 | 3.2 | 3.2 | 0.00 | 0.00 | 0.00 | 26 | 1023.8 |
| 20260906165134 | 30 | 259 | 3.2 | 4.8 | 0.00 | 0.00 | 0.00 | 26 | 1024.0 |
| 20260906164633 | 29 | 280 | 1.6 | 6.4 | 0.00 | 0.00 | 0.00 | 27 | 1023.7 |
| 20260906164129 | 28 | 105 | 6.4 | 8.0 | 0.00 | 0.00 | 0.00 | 28 | 1024.0 |
| 20260906163625 | 29 | 133 | 4.8 | 6.4 | 0.00 | 0.00 | 0.00 | 29 | 1024.0 |
| 20260906163120 | 28 | 129 | 3.2 | 8.0 | 0.00 | 0.00 | 0.00 | 29 | 1024.1 |
| 20260906162617 | 28 | 147 | 4.8 | 6.4 | 0.00 | 0.00 | 0.00 | 30 | 1024.0 |
| 20260906162112 | 27 | 195 | 3.2 | 6.4 | 0.00 | 0.00 | 0.00 | 31 | 1023.7 |
| 20260906161612 | 27 | 142 | 3.2 | 4.8 | 0.00 | 0.00 | 0.00 | 31 | 1024.1 |
| 20260906161111 | 26 | 216 | 1.6 | 3.2 | 0.00 | 0.00 | 0.00 | 33 | 1023.7 |
| 20260906160610 | 26 | 150 | 1.6 | 4.8 | 0.00 | 0.00 | 0.00 | 34 | 1023.8 |
| 20260906160109 | 26 | 91 | 4.8 | 4.8 | 0.00 | 0.00 | 0.00 | 34 | 1024.3 |
| 20260906155607 | 26 | 76 | 1.6 | 6.4 | 0.00 | 0.00 | 0.00 | 33 | 1024.0 |
| 20260906155103 | 26 | 293 | 0.0 | 6.4 | 0.00 | 0.00 | 0.00 | 33 | 1024.1 |
| 20260906154558 | 26 | 327 | 0.0 | 3.2 | 0.00 | 0.00 | 0.00 | 34 | 1023.8 |
| 20260906154057 | 26 | 124 | 1.6 | 3.2 | 0.00 | 0.00 | 0.00 | 32 | 1024.0 |
| 20260906153556 | 26 | 161 | 0.0 | 1.6 | 0.00 | 0.00 | 0.00 | 33 | 1024.0 |
| 20260906153051 | 26 | 208 | 0.0 | 3.2 | 0.00 | 0.00 | 0.00 | 34 | 1023.8 |
| 20260906152551 | 26 | 223 | 0.0 | 0.0 | 0.00 | 0.00 | 0.00 | 34 | 1024.0 |
| 20260906152050 | 25 | 125 | 1.6 | 3.2 | 0.00 | 0.00 | 0.00 | 34 | 1024.1 |
| 20260906151546 | 26 | 136 | 0.0 | 4.8 | 0.00 | 0.00 | 0.00 | 34 | 1024.2 |
| 20260906151041 | 25 | 292 | 1.6 | 3.2 | 0.00 | 0.00 | 0.00 | 35 | 1024.0 |
| 20260906150537 | 25 | 147 | 3.2 | 6.4 | 0.00 | 0.00 | 0.00 | 36 | 1024.0 |
| 20260906150032 | 25 | 141 | 3.2 | 6.4 | 0.00 | 0.00 | 0.00 | 36 | 1023.8 |
| 20260906145531 | 25 | 138 | 3.2 | 6.4 | 0.00 | 0.00 | 0.00 | 35 | 1024.0 |
| 20260906145026 | 25 | 121 | 6.4 | 6.4 | 0.00 | 0.00 | 0.00 | 35 | 1024.0 |
| 20260906144520 | 25 | 202 | 0.0 | 3.2 | 0.00 | 0.00 | 0.00 | 36 | 1023.8 |
| 20260906144015 | 25 | 147 | 3.2 | 8.0 | 0.00 | 0.00 | 0.00 | 35 | 1023.6 |
| 20260906143510 | 25 | 96 | 3.2 | 4.8 | 0.00 | 0.00 | 0.00 | 35 | 1023.7 |
| 20260906143008 | 23 | 62 | 1.6 | 3.2 | 0.00 | 0.00 | 0.00 | 37 | 1023.7 |
| 20260906142506 | 22 | 71 | 1.6 | 3.2 | 0.00 | 0.00 | 0.00 | 37 | 1023.6 |
| 20260906142002 | 22 | 62 | 0.0 | 1.6 | 0.00 | 0.00 | 0.00 | 38 | 1023.6 |
| 20260906141455 | 22 | 36 | 3.2 | 4.8 | 0.00 | 0.00 | 0.00 | 38 | 1023.8 |
| 20260906140951 | 21 | 338 | 3.2 | 4.8 | 0.00 | 0.00 | 0.00 | 38 | 1023.4 |
| 20260906140445 | 21 | 50 | 0.0 | 1.6 | 0.00 | 0.00 | 0.00 | 42 | 1023.7 |
| 20260906135943 | 21 | 44 | 1.6 | 3.2 | 0.00 | 0.00 | 0.00 | 42 | 1023.6 |
| 20260906135442 | 21 | 319 | 0.0 | 1.6 | 0.00 | 0.00 | 0.00 | 40 | 1023.6 |
| 20260906134938 | 21 | 89 | 0.0 | 0.0 | 0.00 | 0.00 | 0.00 | 43 | 1023.5 |
| 20260906134433 | 21 | 116 | 1.6 | 3.2 | 0.00 | 0.00 | 0.00 | 41 | 1023.5 |
| 20260906133933 | 21 | 258 | 3.2 | 4.8 | 0.00 | 0.00 | 0.00 | 41 | 1023.2 |
| 20260906133429 | 21 | 180 | 0.0 | 1.6 | 0.00 | 0.00 | 0.00 | 42 | 1023.5 |
| 20260906132924 | 21 | 204 | 1.6 | 3.2 | 0.00 | 0.00 | 0.00 | 41 | 1023.1 |
| 20260906132419 | 20 | 303 | 1.6 | 3.2 | 0.00 | 0.00 | 0.00 | 41 | 1022.9 |
| 20260906131915 | 20 | 4 | 0.0 | 3.2 | 0.00 | 0.00 | 0.00 | 42 | 1023.4 |
| 20260906131410 | 20 | 124 | 3.2 | 3.2 | 0.00 | 0.00 | 0.00 | 40 | 1023.5 |
| 20260906130906 | 20 | 269 | 0.0 | 3.2 | 0.00 | 0.00 | 0.00 | 40 | 1023.2 |
| 20260906130405 | 20 | 355 | 0.0 | 3.2 | 0.00 | 0.00 | 0.00 | 40 | 1023.1 |
| 20260906125904 | 20 | 36 | 3.2 | 4.8 | 0.00 | 0.00 | 0.00 | 40 | 1023.2 |
| 20260906125401 | 20 | 15 | 1.6 | 6.4 | 0.00 | 0.00 | 0.00 | 40 | 1022.9 |
| 20260906124856 | 20 | 14 | 1.6 | 3.2 | 0.00 | 0.00 | 0.00 | 39 | 1022.9 |
| 20260906124352 | 20 | 66 | 0.0 | 1.6 | 0.00 | 0.00 | 0.00 | 39 | 1023.0 |
| 20260906123851 | 21 | 25 | 0.0 | 1.6 | 0.00 | 0.00 | 0.00 | 39 | 1023.2 |
| 20260906123347 | 21 | 192 | 0.0 | 3.2 | 0.00 | 0.00 | 0.00 | 38 | 1022.9 |
| 20260906122846 | 21 | 349 | 1.6 | 4.8 | 0.00 | 0.00 | 0.00 | 38 | 1022.8 |
| 20260906122341 | 20 | 126 | 0.0 | 1.6 | 0.00 | 0.00 | 0.00 | 39 | 1022.9 |
| 20260906121838 | 20 | 281 | 0.0 | 1.6 | 0.00 | 0.00 | 0.00 | 40 | 1022.9 |
| 20260906121333 | 20 | 131 | 0.0 | 1.6 | 0.00 | 0.00 | 0.00 | 39 | 1023.0 |
| 20260906120830 | 21 | 236 | 0.0 | 1.6 | 0.00 | 0.00 | 0.00 | 39 | 1022.6 |
| 20260906120325 | 21 | 274 | 1.6 | 3.2 | 0.00 | 0.00 | 0.00 | 40 | 1022.6 |
| 20260906115821 | 21 | 304 | 0.0 | 1.6 | 0.00 | 0.00 | 0.00 | 40 | 1022.8 |
| 20260906115316 | 21 | 217 | 0.0 | 1.6 | 0.00 | 0.00 | 0.00 | 40 | 1022.8 |
| 20260906114816 | 21 | 306 | 0.0 | 1.6 | 0.00 | 0.00 | 0.00 | 40 | 1022.6 |
| 20260906114312 | 21 | 195 | 1.6 | 3.2 | 0.00 | 0.00 | 0.00 | 40 | 1022.6 |
| 20260906113812 | 21 | 346 | 0.0 | 3.2 | 0.00 | 0.00 | 0.00 | 39 | 1022.9 |
| 20260906113311 | 21 | 216 | 0.0 | 3.2 | 0.00 | 0.00 | 0.00 | 39 | 1022.9 |
| 20260906112806 | 21 | 290 | 0.0 | 1.6 | 0.00 | 0.00 | 0.00 | 39 | 1023.0 |
| 20260906112306 | 21 | 124 | 0.0 | 1.6 | 0.00 | 0.00 | 0.00 | 39 | 1022.9 |
| 20260906111802 | 22 | 249 | 0.0 | 0.0 | 0.00 | 0.00 | 0.00 | 38 | 1022.8 |
| 20260906111301 | 22 | 271 | 3.2 | 3.2 | 0.00 | 0.00 | 0.00 | 38 | 1022.5 |
| 20260906110757 | 22 | 256 | 0.0 | 3.2 | 0.00 | 0.00 | 0.00 | 38 | 1022.5 |
| 20260906110252 | 22 | 294 | 1.6 | 1.6 | 0.00 | 0.00 | 0.00 | 37 | 1022.6 |
| 20260906105751 | 22 | 250 | 1.6 | 3.2 | 0.00 | 0.00 | 0.00 | 37 | 1022.6 |
| 20260906105242 | 22 | 273 | 3.2 | 4.8 | 0.00 | 0.00 | 0.00 | 37 | 1022.8 |
| 20260906104737 | 23 | 243 | 1.6 | 4.8 | 0.00 | 0.00 | 0.00 | 37 | 1022.9 |
| 20260906104236 | 22 | 256 | 3.2 | 6.4 | 0.00 | 0.00 | 0.00 | 37 | 1022.8 |
| 20260906103734 | 22 | 247 | 4.8 | 6.4 | 0.00 | 0.00 | 0.00 | 38 | 1023.0 |
| 20260906103233 | 22 | 102 | 0.0 | 6.4 | 0.00 | 0.00 | 0.00 | 39 | 1022.9 |
| 20260906102729 | 22 | 220 | 3.2 | 3.2 | 0.00 | 0.00 | 0.00 | 38 | 1022.4 |
| 20260906102228 | 23 | 124 | 0.0 | 3.2 | 0.00 | 0.00 | 0.00 | 38 | 1022.6 |
| 20260906101724 | 23 | 72 | 0.0 | 3.2 | 0.00 | 0.00 | 0.00 | 37 | 1022.9 |
| 20260906101218 | 22 | 319 | 3.2 | 3.2 | 0.00 | 0.00 | 0.00 | 38 | 1023.0 |
| 20260906100714 | 23 | 217 | 0.0 | 4.8 | 0.00 | 0.00 | 0.00 | 38 | 1023.0 |
| 20260906100214 | 23 | 56 | 3.2 | 3.2 | 0.00 | 0.00 | 0.00 | 38 | 1023.0 |
| 20260906095714 | 23 | 31 | 4.8 | 4.8 | 0.00 | 0.00 | 0.00 | 38 | 1023.0 |
| 20260906095210 | 22 | 34 | 6.4 | 6.4 | 0.00 | 0.00 | 0.00 | 38 | 1022.9 |
| 20260906094708 | 22 | 53 | 0.0 | 1.6 | 0.00 | 0.00 | 0.00 | 39 | 1022.5 |
| 20260906094204 | 22 | 53 | 0.0 | 1.6 | 0.00 | 0.00 | 0.00 | 39 | 1022.9 |
| 20260906093701 | 22 | 242 | 0.0 | 3.2 | 0.00 | 0.00 | 0.00 | 39 | 1022.5 |
| 20260906093156 | 22 | 147 | 0.0 | 0.0 | 0.00 | 0.00 | 0.00 | 40 | 1022.5 |
| 20260906092651 | 22 | 135 | 0.0 | 1.6 | 0.00 | 0.00 | 0.00 | 38 | 1022.3 |
| 20260906092150 | 22 | 229 | 0.0 | 1.6 | 0.00 | 0.00 | 0.00 | 39 | 1022.6 |
| 20260906091647 | 22 | 212 | 0.0 | 1.6 | 0.00 | 0.00 | 0.00 | 39 | 1022.5 |
| 20260906091143 | 22 | 217 | 0.0 | 0.0 | 0.00 | 0.00 | 0.00 | 39 | 1022.4 |
| 20260906090638 | 22 | 150 | 0.0 | 0.0 | 0.00 | 0.00 | 0.00 | 38 | 1022.3 |
| 20260906090132 | 22 | 76 | 0.0 | 0.0 | 0.00 | 0.00 | 0.00 | 38 | 1022.3 |
| 20260906085631 | 22 | 76 | 0.0 | 0.0 | 0.00 | 0.00 | 0.00 | 38 | 1022.3 |
| 20260906085125 | 22 | 57 | 0.0 | 1.6 | 0.00 | 0.00 | 0.00 | 38 | 1022.3 |
| 20260906084620 | 22 | 62 | 0.0 | 1.6 | 0.00 | 0.00 | 0.00 | 38 | 1022.3 |
| 20260906084119 | 22 | 29 | 0.0 | 0.0 | 0.00 | 0.00 | 0.00 | 38 | 1022.5 |
| 20260906083615 | 22 | 350 | 0.0 | 1.6 | 0.00 | 0.00 | 0.00 | 37 | 1022.3 |
| 20260906083115 | 22 | 124 | 0.0 | 1.6 | 0.00 | 0.00 | 0.00 | 37 | 1022.5 |
| 20260906082610 | 22 | 13 | 0.0 | 0.0 | 0.00 | 0.00 | 0.00 | 37 | 1022.6 |
| 20260906082106 | 21 | 76 | 0.0 | 1.6 | 0.00 | 0.00 | 0.00 | 39 | 1022.4 |
| 20260906081601 | 21 | 37 | 0.0 | 0.0 | 0.00 | 0.00 | 0.00 | 39 | 1022.3 |
| 20260906081056 | 21 | 209 | 0.0 | 0.0 | 0.00 | 0.00 | 0.00 | 38 | 1022.6 |
| 20260906080553 | 22 | 209 | 0.0 | 0.0 | 0.00 | 0.00 | 0.00 | 38 | 1022.6 |
| 20260906080049 | 22 | 224 | 0.0 | 0.0 | 0.00 | 0.00 | 0.00 | 38 | 1022.6 |
| 20260906075548 | 22 | 145 | 0.0 | 0.0 | 0.00 | 0.00 | 0.00 | 38 | 1022.6 |
| 20260906075044 | 22 | 50 | 0.0 | 0.0 | 0.00 | 0.00 | 0.00 | 37 | 1022.9 |
| 20260906074538 | 22 | 0 | 0.0 | 0.0 | 0.00 | 0.00 | 0.00 | 37 | 1022.6 |
| 20260906074037 | 22 | 326 | 0.0 | 3.2 | 0.00 | 0.00 | 0.00 | 37 | 1023.0 |
| 20260906073532 | 22 | 50 | 0.0 | 0.0 | 0.00 | 0.00 | 0.00 | 37 | 1022.9 |
| 20260906073028 | 22 | 141 | 0.0 | 0.0 | 0.00 | 0.00 | 0.00 | 36 | 1022.9 |
| 20260906072523 | 22 | 246 | 0.0 | 1.6 | 0.00 | 0.00 | 0.00 | 36 | 1023.0 |
| 20260906072019 | 23 | 212 | 0.0 | 0.0 | 0.00 | 0.00 | 0.00 | 35 | 1022.9 |
| 20260906071515 | 23 | 298 | 1.6 | 3.2 | 0.00 | 0.00 | 0.00 | 34 | 1022.8 |
| 20260906071010 | 23 | 277 | 0.0 | 3.2 | 0.00 | 0.00 | 0.00 | 34 | 1022.9 |
| 20260906070506 | 23 | 311 | 3.2 | 4.8 | 0.00 | 0.00 | 0.00 | 34 | 1022.9 |
| 20260906070002 | 24 | 312 | 1.6 | 1.6 | 0.00 | 0.00 | 0.00 | 34 | 1022.9 |
| 20260906065501 | 24 | 326 | 4.8 | 4.8 | 0.00 | 0.00 | 0.00 | 34 | 1022.8 |
| 20260906064956 | 24 | 305 | 4.8 | 6.4 | 0.00 | 0.00 | 0.00 | 34 | 1022.9 |
| 20260906064453 | 24 | 25 | 0.0 | 4.8 | 0.00 | 0.00 | 0.00 | 34 | 1023.1 |
| 20260906063947 | 25 | 286 | 3.2 | 4.8 | 0.00 | 0.00 | 0.00 | 33 | 1023.1 |
| 20260906063443 | 25 | 264 | 1.6 | 6.4 | 0.00 | 0.00 | 0.00 | 33 | 1023.0 |
| 20260906062943 | 25 | 316 | 4.8 | 6.4 | 0.00 | 0.00 | 0.00 | 33 | 1023.1 |
| 20260906062439 | 25 | 313 | 3.2 | 3.2 | 0.00 | 0.00 | 0.00 | 33 | 1023.0 |
| 20260906061934 | 25 | 323 | 8.0 | 9.7 | 0.00 | 0.00 | 0.00 | 33 | 1022.9 |
| 20260906061430 | 25 | 111 | 1.6 | 6.4 | 0.00 | 0.00 | 0.00 | 33 | 1023.1 |
| 20260906060929 | 25 | 27 | 0.0 | 9.7 | 0.00 | 0.00 | 0.00 | 32 | 1023.0 |
| 20260906060427 | 25 | 335 | 4.8 | 9.7 | 0.00 | 0.00 | 0.00 | 32 | 1022.6 |
| 20260906055923 | 25 | 58 | 0.0 | 4.8 | 0.00 | 0.00 | 0.00 | 32 | 1022.9 |
| 20260906055418 | 25 | 231 | 0.0 | 4.8 | 0.00 | 0.00 | 0.00 | 32 | 1022.8 |
| 20260906054914 | 25 | 6 | 3.2 | 6.4 | 0.00 | 0.00 | 0.00 | 32 | 1023.1 |
| 20260906054408 | 25 | 49 | 8.0 | 9.7 | 0.00 | 0.00 | 0.00 | 32 | 1022.9 |
| 20260906053904 | 25 | 72 | 3.2 | 6.4 | 0.00 | 0.00 | 0.00 | 30 | 1022.8 |
| 20260906053400 | 26 | 236 | 0.0 | 6.4 | 0.00 | 0.00 | 0.00 | 29 | 1022.5 |
| 20260906052856 | 26 | 262 | 3.2 | 8.0 | 0.00 | 0.00 | 0.00 | 29 | 1022.8 |
| 20260906052352 | 26 | 286 | 4.8 | 6.4 | 0.00 | 0.00 | 0.00 | 29 | 1022.4 |
| 20260906051849 | 26 | 249 | 8.0 | 9.7 | 0.00 | 0.00 | 0.00 | 29 | 1022.6 |
| 20260906051348 | 26 | 259 | 4.8 | 8.0 | 0.00 | 0.00 | 0.00 | 29 | 1022.6 |
| 20260906050845 | 26 | 239 | 6.4 | 12.9 | 0.00 | 0.00 | 0.00 | 28 | 1022.6 |
| 20260906050339 | 26 | 251 | 9.7 | 11.3 | 0.00 | 0.00 | 0.00 | 28 | 1022.5 |
| 20260906045838 | 26 | 259 | 8.0 | 9.7 | 0.00 | 0.00 | 0.00 | 28 | 1022.4 |
| 20260906045332 | 26 | 242 | 11.3 | 14.5 | 0.00 | 0.00 | 0.00 | 28 | 1022.8 |
| 20260906044828 | 26 | 251 | 9.7 | 12.9 | 0.00 | 0.00 | 0.00 | 28 | 1022.4 |
| 20260906044322 | 26 | 238 | 8.0 | 9.7 | 0.00 | 0.00 | 0.00 | 28 | 1022.2 |
| 20260906043818 | 26 | 266 | 6.4 | 11.3 | 0.00 | 0.00 | 0.00 | 28 | 1022.4 |
| 20260906043314 | 26 | 262 | 4.8 | 8.0 | 0.00 | 0.00 | 0.00 | 28 | 1022.6 |
| 20260906042809 | 27 | 260 | 4.8 | 14.5 | 0.00 | 0.00 | 0.00 | 28 | 1022.4 |
| 20260906042308 | 27 | 269 | 6.4 | 12.9 | 0.00 | 0.00 | 0.00 | 28 | 1022.3 |
| 20260906041804 | 26 | 251 | 9.7 | 14.5 | 0.00 | 0.00 | 0.00 | 28 | 1022.3 |
| 20260906041304 | 26 | 246 | 9.7 | 9.7 | 0.00 | 0.00 | 0.00 | 29 | 1022.4 |
| 20260906040759 | 26 | 269 | 4.8 | 9.7 | 0.00 | 0.00 | 0.00 | 29 | 1022.8 |
| 20260906040254 | 26 | 233 | 6.4 | 8.0 | 0.00 | 0.00 | 0.00 | 29 | 1022.8 |
| 20260906035749 | 26 | 267 | 6.4 | 11.3 | 0.00 | 0.00 | 0.00 | 29 | 1022.5 |
| 20260906035245 | 26 | 265 | 4.8 | 6.4 | 0.00 | 0.00 | 0.00 | 29 | 1022.4 |
| 20260906034740 | 27 | 256 | 6.4 | 11.3 | 0.00 | 0.00 | 0.00 | 29 | 1022.6 |
| 20260906034235 | 26 | 260 | 6.4 | 14.5 | 0.00 | 0.00 | 0.00 | 29 | 1022.5 |
| 20260906033731 | 26 | 257 | 6.4 | 11.3 | 0.00 | 0.00 | 0.00 | 29 | 1022.5 |
| 20260906033230 | 26 | 257 | 6.4 | 11.3 | 0.00 | 0.00 | 0.00 | 30 | 1022.4 |
| 20260906032727 | 26 | 248 | 8.0 | 8.0 | 0.00 | 0.00 | 0.00 | 30 | 1022.5 |
| 20260906032227 | 26 | 262 | 4.8 | 11.3 | 0.00 | 0.00 | 0.00 | 30 | 1022.1 |
| 20260906031722 | 26 | 256 | 6.4 | 9.7 | 0.00 | 0.00 | 0.00 | 30 | 1022.1 |
| 20260906031218 | 27 | 223 | 4.8 | 11.3 | 0.00 | 0.00 | 0.00 | 30 | 1021.9 |
| 20260906030717 | 27 | 236 | 6.4 | 14.5 | 0.00 | 0.00 | 0.00 | 30 | 1021.9 |
| 20260906030213 | 27 | 255 | 9.7 | 9.7 | 0.00 | 0.00 | 0.00 | 30 | 1022.2 |
| 20260906025712 | 27 | 256 | 8.0 | 9.7 | 0.00 | 0.00 | 0.00 | 30 | 1021.8 |
| 20260906025212 | 27 | 241 | 8.0 | 8.0 | 0.00 | 0.00 | 0.00 | 30 | 1021.8 |
| 20260906024711 | 27 | 253 | 4.8 | 6.4 | 0.00 | 0.00 | 0.00 | 30 | 1021.7 |
| 20260906024210 | 27 | 272 | 8.0 | 11.3 | 0.00 | 0.00 | 0.00 | 30 | 1021.5 |
| 20260906023707 | 27 | 247 | 8.0 | 11.3 | 0.00 | 0.00 | 0.00 | 30 | 1021.7 |
| 20260906023206 | 27 | 231 | 3.2 | 12.9 | 0.00 | 0.00 | 0.00 | 30 | 1021.8 |
| 20260906022702 | 27 | 259 | 4.8 | 8.0 | 0.00 | 0.00 | 0.00 | 30 | 1021.3 |
| 20260906022157 | 27 | 263 | 4.8 | 9.7 | 0.00 | 0.00 | 0.00 | 30 | 1021.7 |
| 20260906021653 | 27 | 261 | 4.8 | 6.4 | 0.00 | 0.00 | 0.00 | 30 | 1021.7 |
| 20260906021151 | 27 | 258 | 8.0 | 9.7 | 0.00 | 0.00 | 0.00 | 30 | 1021.1 |
| 20260906020646 | 27 | 254 | 4.8 | 8.0 | 0.00 | 0.00 | 0.00 | 31 | 1021.2 |
| 20260906020141 | 27 | 251 | 8.0 | 8.0 | 0.00 | 0.00 | 0.00 | 31 | 1021.3 |
| 20260906015635 | 27 | 253 | 3.2 | 6.4 | 0.00 | 0.00 | 0.00 | 32 | 1021.6 |
| 20260906015135 | 27 | 260 | 3.2 | 4.8 | 0.00 | 0.00 | 0.00 | 32 | 1021.1 |
| 20260906014634 | 27 | 255 | 0.0 | 1.6 | 0.00 | 0.00 | 0.00 | 32 | 1021.5 |
| 20260906014131 | 27 | 259 | 1.6 | 1.6 | 0.00 | 0.00 | 0.00 | 32 | 1021.2 |
| 20260906013626 | 27 | 262 | 1.6 | 1.6 | 0.00 | 0.00 | 0.00 | 31 | 1021.1 |
| 20260906013121 | 28 | 226 | 1.6 | 4.8 | 0.00 | 0.00 | 0.00 | 31 | 1021.2 |
| 20260906012616 | 28 | 207 | 1.6 | 3.2 | 0.00 | 0.00 | 0.00 | 30 | 1021.1 |
| 20260906012116 | 28 | 217 | 1.6 | 1.6 | 0.00 | 0.00 | 0.00 | 30 | 1021.3 |
| 20260906011613 | 29 | 191 | 1.6 | 3.2 | 0.00 | 0.00 | 0.00 | 29 | 1021.1 |
| 20260906011112 | 29 | 190 | 1.6 | 4.8 | 0.00 | 0.00 | 0.00 | 29 | 1021.3 |
| 20260906010608 | 30 | 164 | 0.0 | 1.6 | 0.00 | 0.00 | 0.00 | 28 | 1021.3 |
| 20260906010104 | 30 | 179 | 1.6 | 6.4 | 0.00 | 0.00 | 0.00 | 28 | 1021.3 |
| 20260906005603 | 30 | 136 | 4.8 | 14.5 | 0.00 | 0.00 | 0.00 | 27 | 1021.2 |
| 20260906005103 | 30 | 196 | 1.6 | 6.4 | 0.00 | 0.00 | 0.00 | 27 | 1021.3 |
| 20260906004602 | 30 | 210 | 3.2 | 4.8 | 0.00 | 0.00 | 0.00 | 27 | 1021.2 |
| 20260906004057 | 31 | 182 | 1.6 | 4.8 | 0.00 | 0.00 | 0.00 | 26 | 1021.3 |
| 20260906003552 | 31 | 15 | 0.0 | 3.2 | 0.00 | 0.00 | 0.00 | 26 | 1021.3 |
| 20260906003049 | 32 | 75 | 1.6 | 3.2 | 0.00 | 0.00 | 0.00 | 26 | 1021.1 |
| 20260906002548 | 31 | 168 | 3.2 | 4.8 | 0.00 | 0.00 | 0.00 | 26 | 1021.1 |
| 20260906002043 | 31 | 210 | 1.6 | 6.4 | 0.00 | 0.00 | 0.00 | 26 | 1021.1 |
| 20260906001539 | 32 | 200 | 3.2 | 9.7 | 0.00 | 0.00 | 0.00 | 26 | 1021.2 |
| 20260906001039 | 32 | 213 | 3.2 | 14.5 | 0.00 | 0.00 | 0.00 | 26 | 1021.1 |
| 20260906000535 | 32 | 101 | 1.6 | 4.8 | 0.00 | 0.00 | 0.00 | 26 | 1021.1 |
| 20260906000030 | 31 | 258 | 3.2 | 16.1 | 0.00 | 0.00 | 0.00 | 27 | 1021.0 |
| 20260905235529 | 31 | 95 | 3.2 | 6.4 | 0.00 | 0.00 | 0.00 | 25 | 1021.0 |
| 20260905235024 | 31 | 101 | 4.8 | 9.7 | 0.00 | 0.00 | 0.00 | 26 | 1021.0 |